Time;durP1;ratioP1;P1;durP2;ratioP2;P2;SDS_P1;SDS_P2;PMS_P1;PMS_P2;Temp;Humidity;BMP_temperature;BMP_pressure;BME280_temperature;BME280_humidity;BME280_pressure;Samples;Min_cycle;Max_cycle;Signal;HPM_P1;HPM_P2
2023/07/26 06:05:56;;;;;;;1.13;1.13;;;;;;;;;;5175771;23;20050;-86
2023/07/26 09:37:52;;;;;;;1.48;0.70;;;;;;;;;;4951404;28;20063;-87
2023/07/26 09:40:33;;;;;;;0.70;0.70;;;;;;;;;;4958289;29;20039;-88
2023/07/26 09:42:59;;;;;;;0.75;0.52;;;;;;;;;;4945314;29;20031;-88
2023/07/26 09:45:25;;;;;;;1.63;1.00;;;;;;;;;;4961807;29;20108;-87
2023/07/26 09:48:03;;;;;;;0.60;0.60;;;;;;;;;;4960531;29;20533;-88
2023/07/26 09:50:30;;;;;;;0.83;0.70;;;;;;;;;;4962462;28;20027;-88
2023/07/26 09:52:56;;;;;;;0.90;0.73;;;;;;;;;;4961256;29;20374;-87
2023/07/26 09:55:27;;;;;;;0.80;0.70;;;;;;;;;;4962494;28;20034;-88
2023/07/26 09:57:54;;;;;;;0.80;0.80;;;;;;;;;;4963277;29;20034;-88
2023/07/26 10:00:24;;;;;;;0.70;0.70;;;;;;;;;;4967219;29;20027;-89
2023/07/26 10:03:05;;;;;;;0.60;0.60;;;;;;;;;;4959984;28;20090;-89
2023/07/26 10:05:37;;;;;;;0.73;0.73;;;;;;;;;;4957419;28;20030;-87
2023/07/26 10:08:05;;;;;;;0.73;0.70;;;;;;;;;;4957197;28;20023;-88
2023/07/26 10:10:30;;;;;;;0.60;0.60;;;;;;;;;;4955249;29;20079;-87
2023/07/26 10:12:58;;;;;;;1.10;0.80;;;;;;;;;;4956387;28;20031;-88
2023/07/26 10:15:25;;;;;;;0.90;0.90;;;;;;;;;;4955347;29;20028;-90
2023/07/26 10:17:52;;;;;;;1.55;1.00;;;;;;;;;;4956285;28;20050;-89
2023/07/26 10:20:18;;;;;;;1.27;0.98;;;;;;;;;;4954881;29;20030;-88
2023/07/26 10:22:45;;;;;;;0.93;0.90;;;;;;;;;;4956052;28;20106;-88
2023/07/26 10:25:11;;;;;;;1.10;0.98;;;;;;;;;;4956602;28;20042;-86
2023/07/26 10:27:37;;;;;;;0.85;0.85;;;;;;;;;;4957944;28;20019;-89
2023/07/26 10:30:04;;;;;;;1.15;0.77;;;;;;;;;;4956745;28;20023;-86
2023/07/26 10:32:30;;;;;;;0.98;0.80;;;;;;;;;;4955677;28;20023;-87
2023/07/26 10:34:56;;;;;;;0.80;0.80;;;;;;;;;;4955738;28;20027;-86
2023/07/26 10:37:23;;;;;;;0.73;0.73;;;;;;;;;;4955713;28;20042;-87
2023/07/26 10:39:49;;;;;;;0.80;0.80;;;;;;;;;;4956208;29;20494;-89
2023/07/26 10:42:23;;;;;;;0.80;0.80;;;;;;;;;;4956828;28;20124;-88
2023/07/26 10:44:49;;;;;;;1.30;1.20;;;;;;;;;;4956200;28;20050;-88
2023/07/26 10:47:14;;;;;;;0.93;0.93;;;;;;;;;;4957402;28;20474;-95
2023/07/26 10:49:48;;;;;;;1.00;1.00;;;;;;;;;;4956650;28;20102;-92
2023/07/26 10:52:15;;;;;;;1.15;0.90;;;;;;;;;;4956932;28;20028;-89
2023/07/26 10:54:41;;;;;;;0.70;0.70;;;;;;;;;;4955749;29;20596;-96
2023/07/26 10:57:23;;;;;;;1.00;1.00;;;;;;;;;;4958142;28;20482;-89
2023/07/26 11:00:06;;;;;;;0.68;0.68;;;;;;;;;;4956355;29;20371;-96
2023/07/26 11:02:44;;;;;;;0.80;0.80;;;;;;;;;;4956338;29;20418;-90
2023/07/26 11:05:16;;;;;;;0.70;0.70;;;;;;;;;;4956185;28;20038;-89
2023/07/26 11:07:54;;;;;;;0.77;0.77;;;;;;;;;;4956509;29;20031;-88
2023/07/26 11:10:22;;;;;;;;;;;;;;;;;;4955074;29;20110;-88
2023/07/26 11:13:06;;;;;;;0.80;0.80;;;;;;;;;;4956424;28;19949;-88
2023/07/26 11:15:33;;;;;;;1.27;1.17;;;;;;;;;;4956944;28;20046;-89
2023/07/26 11:17:58;;;;;;;0.70;0.70;;;;;;;;;;4957486;28;20466;-91
2023/07/26 11:20:24;;;;;;;0.90;0.70;;;;;;;;;;4955526;28;20047;-89
2023/07/26 11:22:50;;;;;;;0.73;0.70;;;;;;;;;;4956031;28;20023;-89
2023/07/26 11:25:15;;;;;;;1.50;0.75;;;;;;;;;;4955884;28;20027;-89
2023/07/26 11:27:41;;;;;;;0.70;0.70;;;;;;;;;;4956018;28;20042;-89
2023/07/26 11:30:15;;;;;;;0.82;0.70;;;;;;;;;;4957095;28;20106;-89
2023/07/26 11:32:49;;;;;;;1.50;0.85;;;;;;;;;;4957019;28;20040;-88
2023/07/26 11:35:19;;;;;;;1.10;0.98;;;;;;;;;;4958800;28;20027;-88
2023/07/26 11:37:57;;;;;;;0.90;0.90;;;;;;;;;;4963103;28;20051;-88
2023/07/26 11:40:23;;;;;;;0.70;0.70;;;;;;;;;;4977259;28;20035;-88
2023/07/26 11:42:50;;;;;;;0.70;0.70;;;;;;;;;;4978614;28;20348;-88
2023/07/26 11:45:15;;;;;;;0.70;0.70;;;;;;;;;;4979410;28;20030;-88
2023/07/26 16:12:46;;;;;;;2.35;1.67;;;;;;;;;;4951439;28;20091;-90
2023/07/26 16:15:12;;;;;;;2.13;1.85;;;;;;;;;;4958243;29;20035;-89
2023/07/26 16:17:37;;;;;;;1.45;1.35;;;;;;;;;;4958641;28;20106;-89
2023/07/26 16:20:03;;;;;;;2.53;1.60;;;;;;;;;;4958266;28;20042;-88
2023/07/26 16:22:29;;;;;;;1.42;1.30;;;;;;;;;;4956880;28;20031;-90
2023/07/26 16:24:54;;;;;;;4.30;3.60;;;;;;;;;;4958290;28;20031;-89
2023/07/26 16:27:20;;;;;;;3.50;2.35;;;;;;;;;;4956899;28;20031;-90
2023/07/26 16:29:46;;;;;;;1.80;1.50;;;;;;;;;;4958222;28;20499;-91
2023/07/26 16:32:11;;;;;;;2.88;1.35;;;;;;;;;;4958163;28;20102;-89
2023/07/26 16:34:37;;;;;;;3.22;1.95;;;;;;;;;;4958149;28;20458;-88
2023/07/26 16:37:02;;;;;;;2.13;1.45;;;;;;;;;;4958060;28;20027;-89
2023/07/26 16:39:28;;;;;;;1.40;1.30;;;;;;;;;;4957919;28;20041;-88
2023/07/26 16:41:53;;;;;;;2.10;1.33;;;;;;;;;;4957949;28;20027;-89
2023/07/26 16:44:18;;;;;;;1.98;1.30;;;;;;;;;;4957960;28;20078;-87
2023/07/26 16:46:44;;;;;;;3.05;1.63;;;;;;;;;;4957911;28;20035;-88
2023/07/26 16:49:09;;;;;;;3.47;1.90;;;;;;;;;;4956606;29;20037;-91
2023/07/26 16:51:35;;;;;;;3.28;1.77;;;;;;;;;;4958006;28;20031;-88
2023/07/26 16:54:00;;;;;;;5.60;1.67;;;;;;;;;;4956634;28;20031;-89
2023/07/26 16:56:26;;;;;;;9.77;4.00;;;;;;;;;;4957811;28;20042;-89
2023/07/26 16:58:51;;;;;;;3.33;2.90;;;;;;;;;;4957733;28;20028;-87
2023/07/26 17:01:17;;;;;;;3.80;2.30;;;;;;;;;;4958289;28;20031;-87
2023/07/26 17:03:42;;;;;;;2.30;1.63;;;;;;;;;;4957737;28;20355;-87
2023/07/26 17:06:08;;;;;;;2.30;1.77;;;;;;;;;;4957623;28;20033;-88
2023/07/26 17:08:33;;;;;;;2.28;1.40;;;;;;;;;;4957388;28;20481;-88
2023/07/26 17:10:59;;;;;;;3.67;1.60;;;;;;;;;;4956232;28;20027;-87
2023/07/26 17:13:25;;;;;;;4.53;1.88;;;;;;;;;;4979050;28;20055;-88
2023/07/26 17:15:51;;;;;;;2.20;1.58;;;;;;;;;;4996231;28;20150;-87
2023/07/26 17:18:17;;;;;;;2.67;1.60;;;;;;;;;;4996338;28;20032;-86
2023/07/26 17:20:44;;;;;;;3.20;1.90;;;;;;;;;;4996957;28;20050;-86
2023/07/26 17:23:13;;;;;;;2.42;1.73;;;;;;;;;;4996355;28;20453;-86
2023/07/26 17:25:39;;;;;;;2.45;1.90;;;;;;;;;;4995767;28;20038;-88
2023/07/26 17:28:04;;;;;;;2.70;2.10;;;;;;;;;;4978540;28;20073;-85
2023/07/26 17:30:30;;;;;;;3.88;2.40;;;;;;;;;;4996109;28;20030;-84
2023/07/26 17:32:57;;;;;;;5.53;1.80;;;;;;;;;;4995503;28;20022;-86
2023/07/26 17:35:30;;;;;;;2.13;1.90;;;;;;;;;;4995616;28;20469;-86
2023/07/26 17:37:56;;;;;;;2.80;1.70;;;;;;;;;;4995782;28;20041;-87
2023/07/26 17:40:22;;;;;;;5.43;1.98;;;;;;;;;;4995567;28;20031;-85
2023/07/26 17:42:47;;;;;;;2.30;1.88;;;;;;;;;;4994825;28;20378;-86
2023/07/26 17:45:13;;;;;;;2.15;1.75;;;;;;;;;;4995527;28;20037;-87
2023/07/26 17:47:39;;;;;;;2.97;1.88;;;;;;;;;;4995591;28;20092;-86
2023/07/26 17:50:05;;;;;;;2.58;1.60;;;;;;;;;;4995574;28;20117;-87
2023/07/26 17:52:31;;;;;;;3.40;1.92;;;;;;;;;;4995983;28;20393;-86
2023/07/26 17:54:57;;;;;;;1.70;1.38;;;;;;;;;;4996635;28;20050;-86
2023/07/26 17:57:23;;;;;;;2.35;1.52;;;;;;;;;;4979201;28;20362;-89
2023/07/26 17:59:49;;;;;;;2.45;1.85;;;;;;;;;;4980616;28;20052;-86
2023/07/26 18:02:14;;;;;;;2.28;1.73;;;;;;;;;;4995548;28;20483;-87
2023/07/26 18:04:40;;;;;;;1.83;1.50;;;;;;;;;;4995778;28;20057;-87
2023/07/26 18:07:06;;;;;;;3.38;1.75;;;;;;;;;;4995189;28;20058;-87
2023/07/26 18:09:31;;;;;;;2.50;1.80;;;;;;;;;;4995128;28;20057;-86
2023/07/26 18:11:57;;;;;;;2.25;1.55;;;;;;;;;;4995833;28;20105;-90
2023/07/26 18:14:24;;;;;;;2.85;1.73;;;;;;;;;;5000050;28;20050;-94
2023/07/26 18:16:50;;;;;;;3.25;1.98;;;;;;;;;;4996883;28;20026;-87
2023/07/26 18:19:15;;;;;;;2.70;2.15;;;;;;;;;;4994720;28;20030;-86
2023/07/26 18:21:41;;;;;;;3.10;2.22;;;;;;;;;;4977489;28;20110;-87
2023/07/26 18:24:08;;;;;;;3.03;2.03;;;;;;;;;;4995058;28;20026;-87
2023/07/26 18:26:33;;;;;;;3.58;2.20;;;;;;;;;;4977505;28;20027;-88
2023/07/26 18:28:58;;;;;;;2.75;1.80;;;;;;;;;;4994832;28;20053;-88
2023/07/26 18:31:24;;;;;;;2.63;1.90;;;;;;;;;;4995097;28;20377;-85
2023/07/26 18:33:49;;;;;;;3.00;1.85;;;;;;;;;;4994660;28;20034;-87
2023/07/26 18:36:15;;;;;;;3.05;1.83;;;;;;;;;;4977124;28;20373;-87
2023/07/26 18:38:40;;;;;;;3.00;1.85;;;;;;;;;;4977155;28;20460;-87
2023/07/26 18:41:06;;;;;;;2.38;1.88;;;;;;;;;;4977326;28;20028;-88
2023/07/26 18:43:31;;;;;;;2.15;1.85;;;;;;;;;;4994815;28;20093;-88
2023/07/26 18:45:57;;;;;;;3.22;2.00;;;;;;;;;;4994413;28;20436;-88
2023/07/26 18:48:23;;;;;;;2.60;1.60;;;;;;;;;;4994588;28;20026;-88
2023/07/26 18:50:50;;;;;;;2.33;2.05;;;;;;;;;;4976919;28;20117;-88
2023/07/26 18:53:16;;;;;;;4.80;3.58;;;;;;;;;;4994450;28;20022;-89
2023/07/26 18:55:44;;;;;;;4.97;2.90;;;;;;;;;;4993597;28;20113;-88
2023/07/26 18:58:10;;;;;;;3.78;3.33;;;;;;;;;;4994299;28;20026;-88
2023/07/26 19:00:36;;;;;;;2.33;2.08;;;;;;;;;;4994336;28;20023;-91
2023/07/26 19:03:03;;;;;;;3.47;1.50;;;;;;;;;;4994238;28;20113;-92
2023/07/26 19:05:28;;;;;;;2.13;1.58;;;;;;;;;;4977247;28;20037;-89
2023/07/26 19:07:54;;;;;;;2.55;1.50;;;;;;;;;;4994465;28;20030;-88
2023/07/26 19:10:19;;;;;;;1.83;1.40;;;;;;;;;;4994595;28;20033;-92
2023/07/26 19:12:45;;;;;;;1.63;1.40;;;;;;;;;;4976696;28;20445;-90
2023/07/26 19:15:11;;;;;;;4.10;1.90;;;;;;;;;;4994199;28;20101;-87
2023/07/26 19:17:36;;;;;;;2.13;1.60;;;;;;;;;;4977112;28;20173;-88
2023/07/26 19:20:03;;;;;;;2.15;1.73;;;;;;;;;;4993982;28;20026;-89
2023/07/26 19:22:29;;;;;;;3.30;1.73;;;;;;;;;;4961160;28;20089;-89
2023/07/26 19:24:55;;;;;;;4.28;1.90;;;;;;;;;;4976651;28;20056;-89
2023/07/26 19:27:21;;;;;;;2.72;1.40;;;;;;;;;;4993990;28;20420;-87
2023/07/26 19:29:46;;;;;;;2.15;1.85;;;;;;;;;;4994326;28;20034;-90
2023/07/26 19:32:11;;;;;;;2.42;2.20;;;;;;;;;;4995651;28;20457;-89
2023/07/26 19:34:38;;;;;;;3.22;2.08;;;;;;;;;;4977412;28;20054;-88
2023/07/26 19:37:05;;;;;;;5.25;2.30;;;;;;;;;;4978008;28;20030;-88
2023/07/26 19:39:31;;;;;;;2.90;2.05;;;;;;;;;;4976484;28;20462;-87
2023/07/26 19:41:57;;;;;;;2.72;2.42;;;;;;;;;;4994090;28;20030;-85
2023/07/26 19:44:23;;;;;;;2.00;1.80;;;;;;;;;;4994068;28;20491;-87
2023/07/26 19:46:48;;;;;;;2.75;2.00;;;;;;;;;;4994113;28;20369;-88
2023/07/26 19:49:13;;;;;;;2.58;2.20;;;;;;;;;;4995092;28;20081;-86
2023/07/26 19:51:39;;;;;;;1.92;1.73;;;;;;;;;;4993939;28;20030;-87
2023/07/26 19:54:04;;;;;;;2.78;1.95;;;;;;;;;;4993710;28;20425;-87
2023/07/26 19:56:30;;;;;;;1.73;1.48;;;;;;;;;;4993846;28;20034;-87
2023/07/26 19:58:55;;;;;;;1.48;1.38;;;;;;;;;;4993494;28;20026;-87
2023/07/26 20:01:21;;;;;;;2.92;1.50;;;;;;;;;;4993617;28;20061;-87
2023/07/26 20:03:47;;;;;;;1.77;1.67;;;;;;;;;;4993795;28;20030;-86
2023/07/26 20:06:13;;;;;;;3.03;1.80;;;;;;;;;;4994864;28;20023;-87
2023/07/26 20:08:38;;;;;;;2.00;1.80;;;;;;;;;;4997387;28;20089;-87
2023/07/26 20:11:04;;;;;;;3.10;1.95;;;;;;;;;;4997203;28;20469;-86
2023/07/26 20:13:30;;;;;;;1.73;1.60;;;;;;;;;;4996928;28;20432;-86
2023/07/26 20:15:55;;;;;;;1.90;1.70;;;;;;;;;;4995554;28;20039;-87
2023/07/26 20:18:20;;;;;;;2.85;1.85;;;;;;;;;;4996056;28;20553;-87
2023/07/26 20:20:46;;;;;;;2.05;1.80;;;;;;;;;;4996760;28;20477;-87
2023/07/26 20:23:12;;;;;;;2.78;1.45;;;;;;;;;;4979378;28;20492;-86
2023/07/26 20:25:38;;;;;;;2.10;1.30;;;;;;;;;;4996522;28;20469;-86
2023/07/26 20:28:04;;;;;;;1.40;1.30;;;;;;;;;;4996605;28;20431;-86
2023/07/26 20:30:29;;;;;;;1.60;1.50;;;;;;;;;;4996660;28;20477;-87
2023/07/26 20:32:56;;;;;;;2.42;1.52;;;;;;;;;;4996616;28;20026;-87
2023/07/26 20:35:21;;;;;;;2.03;1.40;;;;;;;;;;4996801;28;20495;-87
2023/07/26 20:37:47;;;;;;;1.45;1.27;;;;;;;;;;4997323;28;20027;-87
2023/07/26 20:40:12;;;;;;;1.20;1.10;;;;;;;;;;4980241;28;20034;-86
2023/07/26 20:42:38;;;;;;;4.03;1.88;;;;;;;;;;4999014;28;20029;-87
2023/07/26 20:45:04;;;;;;;1.88;1.50;;;;;;;;;;4999215;28;20031;-87
2023/07/26 20:47:29;;;;;;;2.85;1.83;;;;;;;;;;4982206;28;20068;-87
2023/07/26 20:49:54;;;;;;;2.17;1.48;;;;;;;;;;4999526;28;20030;-87
2023/07/26 20:52:20;;;;;;;1.40;1.30;;;;;;;;;;4996686;28;20030;-86
2023/07/26 20:54:45;;;;;;;2.88;1.55;;;;;;;;;;4996922;28;20556;-87
2023/07/26 20:57:11;;;;;;;2.30;1.40;;;;;;;;;;4996453;28;20489;-87
2023/07/26 20:59:36;;;;;;;1.48;1.38;;;;;;;;;;4978744;28;20513;-87
2023/07/26 21:02:02;;;;;;;1.50;1.40;;;;;;;;;;4995905;28;20026;-86
2023/07/26 21:04:27;;;;;;;2.00;1.58;;;;;;;;;;4995962;28;20114;-87
2023/07/26 21:06:53;;;;;;;1.40;1.30;;;;;;;;;;4978438;28;20440;-85
2023/07/26 21:09:20;;;;;;;2.08;1.33;;;;;;;;;;4996043;28;20030;-86
2023/07/26 21:11:45;;;;;;;1.45;1.10;;;;;;;;;;4996296;28;20049;-87
2023/07/26 21:14:11;;;;;;;2.35;1.40;;;;;;;;;;4995806;28;20693;-87
2023/07/26 21:16:36;;;;;;;1.60;1.33;;;;;;;;;;4996192;28;20149;-86
2023/07/26 21:19:02;;;;;;;1.40;1.30;;;;;;;;;;4994736;28;20113;-86
2023/07/26 21:21:27;;;;;;;1.25;1.13;;;;;;;;;;4995981;28;20392;-86
2023/07/26 21:23:52;;;;;;;1.20;1.10;;;;;;;;;;4995913;28;20414;-85
2023/07/26 21:26:18;;;;;;;1.20;1.10;;;;;;;;;;4978456;28;20477;-87
2023/07/26 21:28:44;;;;;;;1.65;1.35;;;;;;;;;;4995546;28;20101;-86
2023/07/26 21:31:10;;;;;;;1.55;1.20;;;;;;;;;;4995965;28;20385;-86
2023/07/26 21:33:36;;;;;;;1.45;1.30;;;;;;;;;;4995951;28;20096;-90
2023/07/26 21:38:35;;;;;;;1.38;1.23;;;;;;;;;;4955502;28;20055;-88
